Time;durP1;ratioP1;P1;durP2;ratioP2;P2;SDS_P1;SDS_P2;PMS_P1;PMS_P2;Temp;Humidity;BMP_temperature;BMP_pressure;BME280_temperature;BME280_humidity;BME280_pressure;Samples;Min_cycle;Max_cycle;Signal;HPM_P1;HPM_P2
2022/03/09 00:00:20;;;;;;;41.28;14.25;;;-2.70;99.90;;;;;;5037461;28;20063;-65
2022/03/09 00:02:45;;;;;;;34.67;12.98;;;-2.70;99.90;;;;;;5040942;28;20104;-67
2022/03/09 00:05:11;;;;;;;42.33;13.25;;;-2.70;99.90;;;;;;5029405;28;20025;-67
2022/03/09 00:07:37;;;;;;;54.15;15.63;;;-2.60;99.90;;;;;;5038511;28;20091;-67
2022/03/09 00:10:04;;;;;;;43.03;13.93;;;-2.60;99.90;;;;;;5014677;28;20052;-67
2022/03/09 00:12:30;;;;;;;39.53;13.18;;;-2.60;99.90;;;;;;5039769;28;20043;-66
2022/03/09 00:14:56;;;;;;;33.83;11.98;;;-2.60;99.90;;;;;;5041070;28;20393;-64
2022/03/09 00:17:22;;;;;;;39.03;13.10;;;-2.60;99.90;;;;;;5019994;28;20039;-66
2022/03/09 00:19:48;;;;;;;36.03;11.88;;;-2.60;99.90;;;;;;5019617;28;20448;-68
2022/03/09 00:22:14;;;;;;;39.53;14.35;;;-2.60;99.90;;;;;;5038404;28;20125;-68
2022/03/09 00:24:40;;;;;;;40.67;12.85;;;-2.70;99.90;;;;;;5048290;28;20556;-66
2022/03/09 00:27:06;;;;;;;41.10;12.80;;;-2.80;99.90;;;;;;5029757;28;20033;-66
2022/03/09 00:29:32;;;;;;;41.33;12.98;;;-2.70;99.90;;;;;;5028153;28;20124;-66
2022/03/09 00:31:58;;;;;;;37.42;12.57;;;-2.70;99.90;;;;;;5011694;28;20029;-64
2022/03/09 00:34:24;;;;;;;37.40;12.10;;;-2.70;99.90;;;;;;5025540;28;20045;-66
2022/03/09 00:36:49;;;;;;;33.92;12.27;;;-2.70;99.90;;;;;;5020040;28;20025;-66
2022/03/09 00:39:15;;;;;;;39.95;12.68;;;-2.70;99.90;;;;;;5033520;28;20222;-66
2022/03/09 00:41:41;;;;;;;42.80;13.05;;;-2.70;99.90;;;;;;5019053;28;20371;-67
2022/03/09 00:44:06;;;;;;;36.22;12.70;;;-2.80;99.90;;;;;;5025919;28;20040;-67
2022/03/09 00:46:32;;;;;;;38.53;11.98;;;-2.80;99.90;;;;;;5033691;28;20483;-66
2022/03/09 00:48:58;;;;;;;35.53;12.07;;;-2.80;99.90;;;;;;5030988;28;20045;-64
2022/03/09 00:51:24;;;;;;;31.63;10.88;;;-2.70;99.90;;;;;;5035904;28;20411;-67
2022/03/09 00:53:50;;;;;;;34.38;12.32;;;-2.70;99.90;;;;;;5038782;28;20061;-65
2022/03/09 00:56:16;;;;;;;35.50;11.63;;;-2.70;99.90;;;;;;5027055;28;20075;-66
2022/03/09 00:58:42;;;;;;;37.47;11.77;;;-2.90;99.90;;;;;;5034140;28;20022;-66
2022/03/09 01:01:10;;;;;;;30.50;11.90;;;-3.00;99.90;;;;;;5026466;28;20041;-67
2022/03/09 01:03:36;;;;;;;35.00;11.60;;;-3.00;99.90;;;;;;5032865;28;20056;-66
2022/03/09 01:06:02;;;;;;;29.50;10.93;;;-3.00;99.90;;;;;;5020982;28;20041;-67
2022/03/09 01:08:28;;;;;;;32.80;11.30;;;-2.90;99.90;;;;;;5025956;28;20034;-64
2022/03/09 01:10:54;;;;;;;34.63;11.60;;;-2.90;99.90;;;;;;5032632;28;20033;-67
2022/03/09 01:13:21;;;;;;;31.30;10.60;;;-2.90;99.90;;;;;;5030818;28;20088;-66
2022/03/09 01:15:47;;;;;;;34.53;10.82;;;-2.90;99.90;;;;;;5027463;28;20033;-67
2022/03/09 01:18:13;;;;;;;29.85;10.25;;;-2.90;99.90;;;;;;5026831;28;20048;-66
2022/03/09 01:20:39;;;;;;;30.58;10.43;;;-2.90;99.90;;;;;;5013620;28;20042;-67
2022/03/09 01:23:05;;;;;;;31.23;10.75;;;-2.90;99.90;;;;;;5010801;28;20085;-65
2022/03/09 01:25:30;;;;;;;29.13;9.95;;;-2.90;99.90;;;;;;5017954;28;20109;-66
2022/03/09 01:27:56;;;;;;;28.45;9.73;;;-3.00;99.90;;;;;;5032098;28;20037;-67
2022/03/09 01:30:22;;;;;;;35.80;11.00;;;-3.10;99.90;;;;;;5030242;28;20693;-67
2022/03/09 01:32:48;;;;;;;34.65;10.88;;;-3.20;99.90;;;;;;5032089;28;20032;-67
2022/03/09 01:35:14;;;;;;;32.72;11.45;;;-3.30;99.90;;;;;;5028503;28;20048;-67
2022/03/09 01:37:41;;;;;;;35.22;11.07;;;-3.20;99.90;;;;;;5022010;28;20053;-67
2022/03/09 01:40:07;;;;;;;31.10;10.13;;;-3.10;99.90;;;;;;5041467;28;20044;-67
2022/03/09 01:42:33;;;;;;;29.17;10.05;;;-3.10;99.90;;;;;;5047295;28;20120;-67
2022/03/09 01:45:08;;;;;;;33.58;10.98;;;-3.10;99.90;;;;;;5027843;28;20025;-64
2022/03/09 01:47:34;;;;;;;29.67;10.38;;;-3.10;99.90;;;;;;5022502;28;20022;-68
2022/03/09 01:50:00;;;;;;;27.67;10.18;;;-3.20;99.90;;;;;;5029672;28;20132;-64
2022/03/09 01:52:25;;;;;;;30.20;10.18;;;-3.20;99.90;;;;;;5023754;28;20164;-67
2022/03/09 01:54:52;;;;;;;30.50;10.25;;;-3.10;99.90;;;;;;5039418;28;20021;-67
2022/03/09 01:57:22;;;;;;;31.77;12.23;;;-3.10;99.90;;;;;;5028837;28;20029;-67
2022/03/09 01:59:52;;;;;;;28.67;9.82;;;-3.20;99.90;;;;;;5035168;28;20033;-67
2022/03/09 02:02:18;;;;;;;23.15;9.20;;;-3.20;99.90;;;;;;5016564;28;20042;-66
2022/03/09 02:04:45;;;;;;;27.58;9.90;;;-3.20;99.90;;;;;;5040665;28;20779;-67
2022/03/09 02:07:11;;;;;;;29.85;10.68;;;-3.20;99.90;;;;;;5037991;28;20037;-66
2022/03/09 02:09:46;;;;;;;31.48;10.02;;;-3.20;99.90;;;;;;5034348;28;20677;-67
2022/03/09 02:12:18;;;;;;;27.33;8.63;;;-3.20;99.90;;;;;;5035312;28;20116;-68
2022/03/09 02:14:49;;;;;;;30.60;9.57;;;-3.30;99.90;;;;;;5027488;28;20049;-68
2022/03/09 02:17:18;;;;;;;30.13;9.77;;;-3.30;99.90;;;;;;5018389;28;20491;-67
2022/03/09 02:19:47;;;;;;;27.63;9.10;;;-3.30;99.90;;;;;;5028984;28;20033;-68
2022/03/09 02:22:36;;;;;;;24.92;8.90;;;-3.30;99.90;;;;;;5025657;28;20041;-68
2022/03/09 02:25:08;;;;;;;25.37;8.53;;;-3.30;99.90;;;;;;5013840;28;20045;-63
2022/03/09 02:27:34;;;;;;;28.42;9.07;;;-3.40;99.90;;;;;;5028458;28;20067;-68
2022/03/09 02:29:59;;;;;;;24.27;8.52;;;-3.50;99.90;;;;;;5031017;28;20081;-68
2022/03/09 02:32:25;;;;;;;29.75;8.93;;;-3.50;99.90;;;;;;5037206;28;20132;-67
2022/03/09 02:34:51;;;;;;;26.75;9.38;;;-3.50;99.90;;;;;;5029867;28;20030;-67
2022/03/09 02:37:17;;;;;;;26.63;8.93;;;-3.60;99.90;;;;;;5043641;28;20541;-67
2022/03/09 02:39:43;;;;;;;27.60;9.10;;;-3.50;99.90;;;;;;5028971;28;20055;-67
2022/03/09 02:42:09;;;;;;;26.55;8.85;;;-3.50;99.90;;;;;;5026063;28;20450;-67
2022/03/09 02:44:35;;;;;;;25.52;9.35;;;-3.50;99.90;;;;;;5033973;28;20061;-67
2022/03/09 02:47:01;;;;;;;31.13;9.88;;;-3.50;99.90;;;;;;5027699;28;20056;-68
2022/03/09 02:49:27;;;;;;;25.60;9.25;;;-3.40;99.90;;;;;;5023679;28;20025;-67
2022/03/09 02:51:53;;;;;;;31.33;9.60;;;-3.40;99.90;;;;;;5032068;28;20369;-68
2022/03/09 02:54:19;;;;;;;25.70;9.13;;;-3.40;99.90;;;;;;5046763;28;20037;-67
2022/03/09 02:56:44;;;;;;;28.13;9.38;;;-3.50;99.90;;;;;;5045378;28;20154;-67
2022/03/09 02:59:10;;;;;;;27.83;9.63;;;-3.70;99.90;;;;;;5025675;28;20103;-67
2022/03/09 03:01:36;;;;;;;33.58;10.45;;;-3.70;99.90;;;;;;5028937;28;20429;-68
2022/03/09 03:04:02;;;;;;;28.33;9.38;;;-3.70;99.90;;;;;;5032997;28;20101;-67
2022/03/09 03:06:28;;;;;;;25.13;8.90;;;-3.60;99.90;;;;;;5033768;28;20025;-67
2022/03/09 03:08:54;;;;;;;26.65;8.50;;;-3.70;99.90;;;;;;5024044;28;20486;-67
2022/03/09 03:11:19;;;;;;;26.33;9.02;;;-3.70;99.90;;;;;;5015752;28;20140;-67
2022/03/09 03:13:45;;;;;;;26.00;9.57;;;-3.70;99.90;;;;;;5026409;28;20026;-67
2022/03/09 03:16:11;;;;;;;26.95;9.48;;;-3.70;99.90;;;;;;5029718;28;20071;-67
2022/03/09 03:18:37;;;;;;;23.90;9.02;;;-3.80;99.90;;;;;;5035679;28;20532;-68
2022/03/09 03:21:04;;;;;;;25.83;9.25;;;-3.70;99.90;;;;;;5024367;28;20025;-67
2022/03/09 03:23:31;;;;;;;25.50;9.25;;;-3.70;99.90;;;;;;5045478;28;20087;-66
2022/03/09 03:25:58;;;;;;;27.33;9.48;;;-3.80;99.90;;;;;;5028984;28;20033;-67
2022/03/09 03:28:24;;;;;;;28.98;9.90;;;-3.80;99.90;;;;;;5031259;28;20428;-68
2022/03/09 03:30:51;;;;;;;29.95;10.05;;;-3.90;99.90;;;;;;5027907;28;20033;-67
2022/03/09 03:33:17;;;;;;;39.90;11.00;;;-3.90;99.90;;;;;;5037332;28;20052;-68
2022/03/09 03:35:44;;;;;;;30.30;10.20;;;-3.90;99.90;;;;;;5013813;28;20359;-67
2022/03/09 03:38:11;;;;;;;36.20;11.35;;;-4.00;99.90;;;;;;5024631;28;20069;-64
2022/03/09 03:40:36;;;;;;;34.85;11.35;;;-4.20;99.90;;;;;;5034918;28;20060;-67
2022/03/09 03:43:03;;;;;;;28.33;10.10;;;-4.40;99.90;;;;;;5049782;28;20068;-67
2022/03/09 03:45:29;;;;;;;30.80;10.98;;;-4.40;99.90;;;;;;5042081;28;20029;-67
2022/03/09 03:47:55;;;;;;;32.22;10.63;;;-4.40;99.90;;;;;;5032152;28;20041;-67
2022/03/09 03:50:20;;;;;;;38.30;11.65;;;-4.40;99.90;;;;;;5038392;28;20041;-67
2022/03/09 03:52:46;;;;;;;44.05;12.88;;;-4.40;99.90;;;;;;5032726;28;20028;-67
2022/03/09 03:55:12;;;;;;;43.30;11.25;;;-4.30;99.90;;;;;;5035727;28;20037;-67
2022/03/09 03:57:37;;;;;;;35.70;11.27;;;-4.30;99.90;;;;;;5028814;28;20052;-67
2022/03/09 04:00:05;;;;;;;35.13;10.70;;;-4.30;99.90;;;;;;5037398;28;20032;-68
2022/03/09 04:02:31;;;;;;;35.47;10.55;;;-4.30;99.90;;;;;;5020568;28;20145;-67
2022/03/09 04:04:57;;;;;;;31.77;9.95;;;-4.30;99.90;;;;;;5025042;28;20136;-67
2022/03/09 04:07:22;;;;;;;34.17;10.40;;;-4.30;99.90;;;;;;5021901;28;20037;-67
2022/03/09 04:09:48;;;;;;;27.42;9.60;;;-4.30;99.90;;;;;;5029486;28;20116;-67
2022/03/09 04:12:14;;;;;;;29.70;9.85;;;-4.40;99.90;;;;;;5027428;28;20741;-68
2022/03/09 04:14:40;;;;;;;34.35;10.45;;;-4.40;99.90;;;;;;5015857;28;20099;-65
2022/03/09 04:17:05;;;;;;;28.88;10.27;;;-4.50;99.90;;;;;;5011690;28;20426;-67
2022/03/09 04:19:31;;;;;;;28.92;10.20;;;-4.50;99.90;;;;;;5022290;28;20962;-66
2022/03/09 04:21:57;;;;;;;30.50;9.82;;;-4.50;99.90;;;;;;5010434;28;20038;-66
2022/03/09 04:24:23;;;;;;;29.95;9.05;;;-4.50;99.90;;;;;;5011685;28;20053;-67
2022/03/09 04:26:49;;;;;;;28.38;10.07;;;-4.50;99.90;;;;;;5014954;28;20494;-67
2022/03/09 04:29:15;;;;;;;30.95;9.85;;;-4.40;99.90;;;;;;5011666;28;20033;-67
2022/03/09 04:31:40;;;;;;;32.40;9.43;;;-4.50;99.90;;;;;;5021487;28;20467;-66
2022/03/09 04:34:06;;;;;;;28.33;9.35;;;-4.50;99.90;;;;;;5015379;28;20463;-68
2022/03/09 04:36:32;;;;;;;32.03;10.98;;;-4.60;99.90;;;;;;5024471;28;20048;-66
2022/03/09 04:38:58;;;;;;;33.00;11.13;;;-4.60;99.90;;;;;;5018283;28;20033;-67
2022/03/09 04:41:25;;;;;;;33.63;11.50;;;-4.60;99.90;;;;;;5025614;28;20038;-66
2022/03/09 04:43:51;;;;;;;36.33;11.60;;;-4.70;99.90;;;;;;5024204;28;20121;-67
2022/03/09 04:46:17;;;;;;;28.98;10.95;;;-4.80;99.90;;;;;;5021320;28;20033;-67
2022/03/09 04:48:44;;;;;;;31.50;10.88;;;-4.90;99.90;;;;;;5021807;28;20383;-67
2022/03/09 04:51:10;;;;;;;33.47;10.15;;;-4.90;99.90;;;;;;5027533;28;20033;-65
2022/03/09 04:53:36;;;;;;;28.17;9.07;;;-5.00;99.90;;;;;;5023013;28;20113;-67
2022/03/09 04:56:01;;;;;;;30.10;9.70;;;-5.00;99.90;;;;;;5025774;28;20468;-66
2022/03/09 04:58:28;;;;;;;29.63;8.52;;;-4.90;99.90;;;;;;5023266;28;20456;-67
2022/03/09 05:00:53;;;;;;;25.40;9.30;;;-4.90;99.90;;;;;;5016165;28;20042;-70
2022/03/09 05:03:19;;;;;;;23.05;7.95;;;-4.80;99.90;;;;;;5029842;28;20043;-71
2022/03/09 05:05:45;;;;;;;31.98;9.07;;;-4.80;99.90;;;;;;5024063;28;20160;-73
2022/03/09 05:08:11;;;;;;;26.58;10.57;;;-4.70;99.90;;;;;;5024008;28;20091;-68
2022/03/09 05:10:37;;;;;;;25.92;8.93;;;-4.70;99.90;;;;;;5024149;28;20108;-72
2022/03/09 05:13:03;;;;;;;27.08;9.02;;;-4.70;99.90;;;;;;5021312;28;20117;-74
2022/03/09 05:15:29;;;;;;;30.67;9.07;;;-4.60;99.90;;;;;;5027312;28;20055;-75
2022/03/09 05:17:55;;;;;;;28.17;8.77;;;-4.60;99.90;;;;;;5025975;28;20037;-71
2022/03/09 05:20:21;;;;;;;34.58;8.93;;;-4.50;99.90;;;;;;5021815;28;20029;-72
2022/03/09 05:22:48;;;;;;;23.02;8.85;;;-4.50;99.90;;;;;;5022502;28;20615;-72
2022/03/09 05:25:14;;;;;;;31.85;9.68;;;-4.40;99.90;;;;;;5026075;28;20034;-65
2022/03/09 05:27:40;;;;;;;30.77;9.30;;;-4.20;99.90;;;;;;5024709;28;20048;-73
2022/03/09 05:30:09;;;;;;;26.38;9.45;;;-4.10;99.90;;;;;;5021207;28;20037;-75
2022/03/09 05:32:35;;;;;;;30.13;9.30;;;-4.50;99.90;;;;;;5031038;28;20044;-71
2022/03/09 05:35:01;;;;;;;27.95;8.95;;;-4.70;99.90;;;;;;5015382;28;20113;-76
2022/03/09 05:37:28;;;;;;;26.73;9.20;;;-4.80;99.90;;;;;;5024622;28;20109;-75
2022/03/09 05:39:54;;;;;;;26.60;8.88;;;-4.80;99.90;;;;;;5023037;28;20452;-73
2022/03/09 05:42:20;;;;;;;25.95;8.93;;;-4.80;99.90;;;;;;5025368;28;20052;-70
2022/03/09 05:44:45;;;;;;;34.95;10.48;;;-4.90;99.90;;;;;;5022120;28;20030;-75
2022/03/09 05:47:11;;;;;;;32.30;10.82;;;-4.90;99.90;;;;;;5020626;28;20029;-77
2022/03/09 05:49:36;;;;;;;29.60;11.02;;;-5.10;99.90;;;;;;5027872;28;20025;-71
2022/03/09 05:52:04;;;;;;;32.15;10.85;;;-5.10;99.90;;;;;;5028992;28;20107;-74
2022/03/09 05:54:30;;;;;;;35.38;10.85;;;-5.10;99.90;;;;;;5030073;28;20080;-73
2022/03/09 05:56:55;;;;;;;28.05;9.02;;;-5.30;99.90;;;;;;5012825;28;20058;-73
2022/03/09 05:59:21;;;;;;;28.75;9.10;;;-5.30;99.90;;;;;;5012271;28;20502;-73
2022/03/09 06:01:47;;;;;;;27.48;8.93;;;-5.10;99.90;;;;;;5026864;28;20389;-72
2022/03/09 06:04:13;;;;;;;28.83;9.13;;;-4.90;99.90;;;;;;5048018;28;20025;-73
2022/03/09 06:06:38;;;;;;;26.08;9.02;;;-4.70;99.90;;;;;;5029015;28;20037;-73
2022/03/09 06:09:04;;;;;;;26.55;9.32;;;-4.60;99.90;;;;;;5029001;28;20102;-72
2022/03/09 06:11:29;;;;;;;29.08;9.50;;;-4.40;99.90;;;;;;5029984;28;20413;-73
2022/03/09 06:13:55;;;;;;;30.77;9.52;;;-4.30;99.90;;;;;;5032217;28;20032;-71
2022/03/09 06:16:21;;;;;;;27.13;9.55;;;-4.30;99.90;;;;;;5031727;28;20072;-76
2022/03/09 06:18:47;;;;;;;25.02;9.70;;;-4.50;99.90;;;;;;5030884;28;20046;-78
2022/03/09 06:21:13;;;;;;;26.33;9.35;;;-4.30;99.90;;;;;;5032475;28;20033;-79
2022/03/09 06:23:39;;;;;;;27.05;8.93;;;-4.20;99.90;;;;;;5028886;28;20785;-75
2022/03/09 06:26:05;;;;;;;25.95;10.05;;;-4.20;99.90;;;;;;5016118;28;20033;-78
2022/03/09 06:28:31;;;;;;;26.58;8.68;;;-4.10;99.90;;;;;;5012782;28;20026;-73
2022/03/09 06:30:57;;;;;;;25.92;9.20;;;-4.00;99.90;;;;;;5030120;28;20044;-74
2022/03/09 06:33:23;;;;;;;28.50;10.27;;;-3.90;99.90;;;;;;5030517;28;20036;-79
2022/03/09 06:35:50;;;;;;;27.80;9.68;;;-3.70;99.90;;;;;;5015317;28;20053;-74
2022/03/09 06:38:16;;;;;;;26.23;9.25;;;-3.60;99.90;;;;;;5012012;28;20038;-70
2022/03/09 06:40:43;;;;;;;31.55;11.10;;;-3.50;99.90;;;;;;5025625;28;20029;-76
2022/03/09 06:43:09;;;;;;;32.30;11.30;;;-3.40;99.90;;;;;;5026989;28;20471;-79
2022/03/09 06:45:35;;;;;;;30.13;9.95;;;-3.20;99.90;;;;;;5012302;28;20044;-73
2022/03/09 06:48:01;;;;;;;106.90;40.03;;;-3.20;99.90;;;;;;5012116;28;20034;-75
2022/03/09 06:50:27;;;;;;;31.75;10.57;;;-3.10;99.90;;;;;;5043251;28;20026;-74
2022/03/09 06:52:53;;;;;;;29.30;12.45;;;-3.00;99.90;;;;;;5014739;28;20136;-73
2022/03/09 06:55:19;;;;;;;34.63;11.07;;;-2.80;99.90;;;;;;5029488;28;20601;-68
2022/03/09 06:57:45;;;;;;;29.15;10.90;;;-2.90;99.90;;;;;;5023098;28;20037;-78
2022/03/09 07:00:14;;;;;;;33.17;12.07;;;-2.90;99.90;;;;;;5020829;28;20041;-74
2022/03/09 07:02:40;;;;;;;27.52;10.73;;;-3.00;99.90;;;;;;5022885;28;20030;-72
2022/03/09 07:05:06;;;;;;;28.80;9.73;;;-2.90;99.90;;;;;;5012123;28;20043;-78
2022/03/09 07:07:32;;;;;;;31.20;10.50;;;-2.60;99.90;;;;;;5030855;28;20045;-71
2022/03/09 07:09:58;;;;;;;31.30;10.00;;;-2.10;99.90;;;;;;5029592;28;20036;-76
2022/03/09 07:12:24;;;;;;;37.33;11.10;;;-1.50;99.90;;;;;;5029378;28;20033;-75
2022/03/09 07:14:49;;;;;;;48.53;15.50;;;-1.10;99.90;;;;;;5030115;28;20060;-74
2022/03/09 07:17:16;;;;;;;40.55;13.75;;;-1.40;99.90;;;;;;5022709;28;20029;-74
2022/03/09 07:19:42;;;;;;;42.03;13.73;;;-1.80;99.90;;;;;;5048904;28;20025;-71
2022/03/09 07:22:07;;;;;;;37.50;13.20;;;-1.90;99.90;;;;;;5031412;28;20033;-79
2022/03/09 07:24:34;;;;;;;52.85;19.73;;;-1.80;99.90;;;;;;5029756;28;20050;-75
2022/03/09 07:27:00;;;;;;;45.83;16.73;;;-1.70;99.90;;;;;;5029393;28;20076;-77
2022/03/09 07:29:25;;;;;;;38.53;13.65;;;-1.40;99.90;;;;;;5030433;28;20029;-74
2022/03/09 07:31:52;;;;;;;28.95;10.25;;;-1.20;99.90;;;;;;5025205;28;20021;-75
2022/03/09 07:34:26;;;;;;;24.10;8.80;;;-0.70;99.90;;;;;;5011230;28;20037;-79
2022/03/09 07:36:58;;;;;;;21.80;9.07;;;-0.20;99.90;;;;;;5011955;28;20387;-78
2022/03/09 07:39:28;;;;;;;24.58;9.10;;;0.30;99.90;;;;;;5009114;28;20121;-68
2022/03/09 07:41:55;;;;;;;64.97;32.33;;;0.60;99.90;;;;;;5011220;28;20026;-79
2022/03/09 07:44:22;;;;;;;32.95;10.32;;;0.80;99.90;;;;;;5014645;28;20025;-70
2022/03/09 07:46:49;;;;;;;36.70;15.73;;;1.10;99.90;;;;;;5018282;28;20038;-77
2022/03/09 07:49:15;;;;;;;22.65;8.55;;;1.20;99.90;;;;;;5011207;28;20042;-79
2022/03/09 07:51:41;;;;;;;29.45;10.90;;;1.20;99.90;;;;;;5011788;28;20068;-83
2022/03/09 07:54:07;;;;;;;24.73;9.45;;;1.40;99.90;;;;;;5011871;28;20131;-77
2022/03/09 07:56:34;;;;;;;37.75;15.25;;;1.50;99.90;;;;;;5009926;28;20180;-79
2022/03/09 07:59:02;;;;;;;25.98;10.07;;;1.70;99.90;;;;;;5010741;28;20121;-78
2022/03/09 08:01:27;;;;;;;26.15;10.02;;;1.90;99.90;;;;;;5015869;28;20131;-79
2022/03/09 08:03:54;;;;;;;24.80;9.32;;;2.10;99.90;;;;;;5013918;28;20478;-77
2022/03/09 08:06:20;;;;;;;23.27;10.00;;;2.40;99.90;;;;;;5029992;28;20131;-77
2022/03/09 08:08:46;;;;;;;23.50;9.23;;;2.50;99.90;;;;;;5029264;28;20081;-73
2022/03/09 08:11:12;;;;;;;26.45;10.40;;;2.70;99.90;;;;;;5036965;28;20037;-75
2022/03/09 08:13:38;;;;;;;56.83;28.50;;;2.80;99.90;;;;;;5009570;28;20133;-75
2022/03/09 08:16:03;;;;;;;59.00;25.95;;;3.10;99.90;;;;;;5030397;28;20025;-74
2022/03/09 08:18:29;;;;;;;21.88;8.93;;;3.30;99.90;;;;;;5057592;28;20064;-71
2022/03/09 08:20:55;;;;;;;29.15;11.73;;;3.50;99.90;;;;;;5049806;28;20079;-75
2022/03/09 09:03:47;;;;;;;30.88;12.02;;;5.10;92.20;;;;;;5002917;28;20404;-72
2022/03/09 09:06:14;;;;;;;29.98;12.07;;;6.10;82.30;;;;;;4985792;28;20035;-73
2022/03/09 09:08:40;;;;;;;63.88;27.27;;;6.20;81.10;;;;;;4995616;28;20038;-72
2022/03/09 09:11:06;;;;;;;30.38;12.07;;;6.50;80.50;;;;;;4987189;28;20036;-75
2022/03/09 09:13:31;;;;;;;30.48;12.30;;;6.70;76.80;;;;;;4984780;28;20656;-70
2022/03/09 09:15:57;;;;;;;31.52;11.73;;;6.80;73.60;;;;;;4987632;28;20031;-70
2022/03/09 09:18:23;;;;;;;27.75;11.32;;;6.80;71.30;;;;;;4985965;28;20760;-69
2022/03/09 09:20:49;;;;;;;30.35;12.38;;;6.90;69.80;;;;;;4986839;28;20062;-68
2022/03/09 09:23:16;;;;;;;36.78;14.18;;;6.90;68.80;;;;;;4983099;28;20089;-73
2022/03/09 09:25:42;;;;;;;31.52;13.00;;;7.00;70.20;;;;;;4986534;28;20084;-69
2022/03/09 09:28:08;;;;;;;38.45;16.67;;;7.30;69.10;;;;;;4985687;28;20042;-71
2022/03/09 09:30:34;;;;;;;32.03;13.15;;;7.40;66.70;;;;;;4985463;28;20066;-71
2022/03/09 09:33:00;;;;;;;30.02;12.48;;;7.60;66.20;;;;;;4985794;28;20030;-73
2022/03/09 09:35:26;;;;;;;32.90;13.18;;;7.70;62.90;;;;;;4985928;28;20037;-72
2022/03/09 09:37:52;;;;;;;31.80;13.32;;;7.80;65.80;;;;;;4985711;28;20026;-72
2022/03/09 09:40:18;;;;;;;37.33;14.02;;;8.00;65.80;;;;;;4985658;28;20046;-70
2022/03/09 09:42:45;;;;;;;32.00;12.85;;;8.30;63.90;;;;;;4985548;28;20062;-73
2022/03/09 09:45:11;;;;;;;41.42;17.45;;;8.40;63.30;;;;;;4985882;28;20155;-74
2022/03/09 09:47:37;;;;;;;38.70;12.95;;;8.70;62.80;;;;;;4986424;28;20027;-72
2022/03/09 09:50:06;;;;;;;38.08;13.77;;;8.80;61.50;;;;;;4986248;28;20031;-74
2022/03/09 09:52:33;;;;;;;29.60;12.18;;;8.90;62.10;;;;;;4985535;28;20046;-73
2022/03/09 09:55:00;;;;;;;32.22;14.20;;;8.80;59.60;;;;;;4988705;28;20122;-70
2022/03/09 09:57:27;;;;;;;33.25;12.88;;;8.90;59.90;;;;;;4985037;28;20151;-73
2022/03/09 09:59:53;;;;;;;29.92;12.98;;;9.20;59.90;;;;;;4982088;28;20473;-71
2022/03/09 10:02:19;;;;;;;32.92;12.18;;;9.20;59.80;;;;;;4978988;28;20393;-72
2022/03/09 10:04:46;;;;;;;37.10;13.50;;;9.50;60.30;;;;;;4991365;28;20026;-74
2022/03/09 10:07:12;;;;;;;35.65;13.88;;;9.60;58.00;;;;;;4991757;28;20393;-78
2022/03/09 10:09:42;;;;;;;32.85;13.82;;;9.80;57.10;;;;;;4991380;28;20034;-73
2022/03/09 10:12:09;;;;;;;33.10;13.10;;;9.70;55.10;;;;;;4992582;28;20125;-73
2022/03/09 10:14:53;;;;;;;31.58;13.27;;;9.60;54.40;;;;;;4991518;28;20089;-73
2022/03/09 10:17:20;;;;;;;30.00;12.73;;;9.60;55.10;;;;;;4990731;28;20039;-73
2022/03/09 10:19:50;;;;;;;32.15;12.73;;;9.50;56.30;;;;;;4987288;28;20034;-74
2022/03/09 10:22:25;;;;;;;38.77;14.70;;;9.70;53.40;;;;;;4990492;28;20033;-74
2022/03/09 10:24:53;;;;;;;35.33;14.35;;;9.70;53.60;;;;;;4994377;28;20364;-74
2022/03/09 10:27:46;;;;;;;34.65;13.40;;;9.70;53.60;;;;;;4999108;28;20388;-72
2022/03/09 10:30:16;;;;;;;36.83;14.15;;;9.90;54.10;;;;;;5006115;28;20033;-74
2022/03/09 10:32:59;;;;;;;34.38;14.00;;;9.90;53.40;;;;;;4990574;28;20496;-73
2022/03/09 10:35:30;;;;;;;35.47;14.05;;;10.20;53.10;;;;;;4990994;28;20034;-72
2022/03/09 10:37:58;;;;;;;32.92;13.35;;;10.40;52.40;;;;;;4991248;28;20034;-73
2022/03/09 10:40:24;;;;;;;38.78;14.35;;;10.00;50.80;;;;;;4991586;28;20117;-73
2022/03/09 10:43:08;;;;;;;35.17;14.05;;;10.00;53.30;;;;;;4992085;28;20124;-71
2022/03/09 10:45:33;;;;;;;38.05;14.30;;;10.20;53.00;;;;;;4991609;28;20420;-76
2022/03/09 10:48:00;;;;;;;39.25;14.55;;;10.30;51.60;;;;;;4991319;28;20033;-73
2022/03/09 10:50:28;;;;;;;35.80;14.68;;;10.40;51.00;;;;;;4990433;28;20050;-73
2022/03/09 10:53:08;;;;;;;37.22;14.57;;;10.50;50.00;;;;;;4989645;28;20080;-73
2022/03/09 10:55:38;;;;;;;41.15;14.68;;;10.40;53.40;;;;;;4989879;28;20021;-76
2022/03/09 10:58:09;;;;;;;36.20;14.98;;;10.80;49.20;;;;;;4992189;28;20604;-74
2022/03/09 11:00:55;;;;;;;35.28;14.48;;;11.00;49.10;;;;;;4991182;28;20030;-77
2022/03/09 11:03:33;;;;;;;37.58;13.73;;;11.20;48.80;;;;;;4990448;28;20058;-74
2022/03/09 11:06:01;;;;;;;35.33;14.50;;;11.20;46.40;;;;;;4990614;28;20043;-74
2022/03/09 11:08:32;;;;;;;35.78;14.85;;;11.30;47.90;;;;;;4989478;28;20031;-77
2022/03/09 11:10:59;;;;;;;39.10;15.45;;;11.30;46.50;;;;;;4985270;28;20042;-74
2022/03/09 11:13:27;;;;;;;34.80;14.82;;;11.30;48.50;;;;;;4989546;28;20030;-74
2022/03/09 11:15:54;;;;;;;41.60;14.70;;;11.20;47.80;;;;;;4991305;28;20026;-74
2022/03/09 11:18:22;;;;;;;36.78;15.00;;;11.50;47.70;;;;;;4998143;28;20053;-75
2022/03/09 11:20:49;;;;;;;44.83;16.17;;;11.50;47.40;;;;;;4991497;28;20041;-73
2022/03/09 11:23:16;;;;;;;32.35;14.40;;;11.40;46.50;;;;;;4991591;28;20456;-72
2022/03/09 11:26:07;;;;;;;35.47;15.40;;;11.70;46.90;;;;;;4993677;28;20068;-75
2022/03/09 11:28:43;;;;;;;38.35;14.38;;;11.80;44.30;;;;;;4984385;28;20045;-73
2022/03/09 11:31:11;;;;;;;37.10;14.88;;;12.10;44.80;;;;;;5014399;28;20073;-75
2022/03/09 11:33:47;;;;;;;39.70;15.00;;;11.80;42.70;;;;;;4989203;28;20645;-72
2022/03/09 11:36:23;;;;;;;38.22;15.05;;;12.10;45.90;;;;;;4991110;28;20018;-73
2022/03/09 11:38:54;;;;;;;34.90;14.65;;;12.30;43.70;;;;;;4984892;28;20042;-75
2022/03/09 11:41:24;;;;;;;36.03;14.57;;;12.10;42.70;;;;;;5001915;28;20501;-75
2022/03/09 11:43:52;;;;;;;34.97;14.43;;;12.10;43.70;;;;;;4988068;28;20564;-75
2022/03/09 11:46:19;;;;;;;37.22;15.38;;;12.10;43.50;;;;;;4990779;28;20038;-73
2022/03/09 11:48:49;;;;;;;37.90;15.27;;;11.90;43.20;;;;;;4988250;28;20026;-75
2022/03/09 11:51:15;;;;;;;30.70;13.50;;;12.10;46.40;;;;;;4990468;28;20134;-72
2022/03/09 11:53:50;;;;;;;34.55;14.75;;;12.30;42.60;;;;;;4989478;28;20117;-72
2022/03/09 11:56:36;;;;;;;35.47;15.02;;;12.40;43.00;;;;;;4987071;28;20038;-75
2022/03/09 11:59:17;;;;;;;33.50;13.38;;;12.20;45.20;;;;;;4990608;28;20030;-73
2022/03/09 12:01:57;;;;;;;;;;;12.40;44.80;;;;;;4990281;28;20136;-74
2022/03/09 12:04:42;;;;;;;35.83;14.07;;;12.40;42.80;;;;;;4985930;28;19910;-72
2022/03/09 12:07:09;;;;;;;35.65;14.25;;;12.40;42.80;;;;;;4985621;28;20038;-75
2022/03/09 12:10:02;;;;;;;34.45;14.10;;;12.30;43.50;;;;;;4988568;28;20041;-72
2022/03/09 12:12:29;;;;;;;33.78;14.13;;;12.10;42.10;;;;;;4988726;28;20053;-76
2022/03/09 12:15:05;;;;;;;40.33;14.90;;;12.30;43.00;;;;;;4994301;28;20030;-73
2022/03/09 12:17:44;;;;;;;38.85;14.82;;;12.70;43.10;;;;;;5003530;28;20037;-72
2022/03/09 12:20:29;;;;;;;33.30;15.00;;;13.00;41.50;;;;;;5008946;28;20040;-73
2022/03/09 12:23:04;;;;;;;35.95;15.00;;;13.20;41.40;;;;;;4993260;28;20084;-77
2022/03/09 12:25:46;;;;;;;33.17;14.75;;;13.40;41.90;;;;;;4989843;28;20122;-73
2022/03/09 12:28:24;;;;;;;38.25;14.00;;;13.40;39.60;;;;;;4988943;28;20045;-74
2022/03/09 12:30:53;;;;;;;36.83;13.40;;;13.20;41.80;;;;;;4989095;28;20050;-74
2022/03/09 12:33:29;;;;;;;36.72;13.68;;;13.40;39.20;;;;;;4990174;28;20034;-77
2022/03/09 12:36:05;;;;;;;39.25;16.10;;;13.70;40.20;;;;;;4990400;28;20022;-74
2022/03/09 12:38:52;;;;;;;37.47;14.50;;;13.80;39.00;;;;;;4988254;28;20034;-75
2022/03/09 12:41:27;;;;;;;37.08;15.45;;;13.70;38.10;;;;;;4984391;28;20046;-72
2022/03/09 12:43:59;;;;;;;34.17;14.20;;;13.70;38.50;;;;;;4989996;28;20029;-73
2022/03/09 12:46:25;;;;;;;41.80;15.63;;;14.10;39.10;;;;;;4987701;28;20041;-78
2022/03/09 12:48:59;;;;;;;37.13;15.77;;;14.30;39.00;;;;;;4988339;28;20400;-73
2022/03/09 12:51:25;;;;;;;34.13;14.00;;;14.50;41.30;;;;;;4988969;28;20046;-75
2022/03/09 12:53:51;;;;;;;36.13;14.82;;;14.60;38.90;;;;;;4989034;28;20038;-73
2022/03/09 12:56:18;;;;;;;37.20;15.73;;;14.30;37.70;;;;;;4993046;28;20045;-74
2022/03/09 12:58:44;;;;;;;34.95;14.52;;;14.10;38.10;;;;;;4987342;28;20268;-74
2022/03/09 13:01:13;;;;;;;36.60;15.40;;;13.90;38.40;;;;;;4987926;28;20559;-75
2022/03/09 13:03:40;;;;;;;39.72;15.50;;;14.00;38.70;;;;;;4988568;28;20809;-75
2022/03/09 13:06:24;;;;;;;33.65;15.70;;;14.00;37.80;;;;;;4990069;28;20129;-78
2022/03/09 13:08:50;;;;;;;36.72;15.10;;;14.20;38.80;;;;;;4987517;28;20044;-73
2022/03/09 13:11:45;;;;;;;37.45;15.40;;;14.30;38.90;;;;;;4988840;28;20550;-77
2022/03/09 13:14:16;;;;;;;35.10;14.73;;;14.40;38.00;;;;;;4991845;28;20042;-73